sensor_id;sensor_type;location;lat;lon;timestamp;P1;durP1;ratioP1;P2;durP2;ratioP2
45043;SDS011;30784;48.490;9.688;2023-11-21T00:02:24;7.30;;;1.50;;
45043;SDS011;30784;48.490;9.688;2023-11-21T00:04:50;8.95;;;1.70;;
45043;SDS011;30784;48.490;9.688;2023-11-21T00:07:17;6.30;;;1.10;;
45043;SDS011;30784;48.490;9.688;2023-11-21T00:09:42;9.63;;;1.40;;
45043;SDS011;30784;48.490;9.688;2023-11-21T00:12:08;5.22;;;1.00;;
45043;SDS011;30784;48.490;9.688;2023-11-21T00:14:39;6.35;;;1.60;;
45043;SDS011;30784;48.490;9.688;2023-11-21T00:17:05;5.68;;;1.30;;
45043;SDS011;30784;48.490;9.688;2023-11-21T00:19:31;6.13;;;1.40;;
45043;SDS011;30784;48.490;9.688;2023-11-21T00:21:58;5.55;;;1.30;;
45043;SDS011;30784;48.490;9.688;2023-11-21T00:24:24;4.93;;;1.00;;
45043;SDS011;30784;48.490;9.688;2023-11-21T00:26:50;5.38;;;0.90;;
45043;SDS011;30784;48.490;9.688;2023-11-21T00:29:16;6.00;;;0.93;;
45043;SDS011;30784;48.490;9.688;2023-11-21T00:31:43;10.48;;;3.47;;
45043;SDS011;30784;48.490;9.688;2023-11-21T00:34:09;7.93;;;1.48;;
45043;SDS011;30784;48.490;9.688;2023-11-21T00:36:36;7.40;;;1.75;;
45043;SDS011;30784;48.490;9.688;2023-11-21T00:39:01;6.88;;;1.45;;
45043;SDS011;30784;48.490;9.688;2023-11-21T00:41:27;6.90;;;1.00;;
45043;SDS011;30784;48.490;9.688;2023-11-21T00:43:53;5.43;;;0.98;;
45043;SDS011;30784;48.490;9.688;2023-11-21T00:46:20;6.60;;;1.45;;
45043;SDS011;30784;48.490;9.688;2023-11-21T00:48:45;6.80;;;1.10;;
45043;SDS011;30784;48.490;9.688;2023-11-21T00:51:11;5.53;;;1.00;;
45043;SDS011;30784;48.490;9.688;2023-11-21T00:53:37;4.82;;;0.98;;
45043;SDS011;30784;48.490;9.688;2023-11-21T00:56:03;6.18;;;1.30;;
45043;SDS011;30784;48.490;9.688;2023-11-21T00:58:28;5.38;;;0.80;;
45043;SDS011;30784;48.490;9.688;2023-11-21T01:00:55;8.30;;;1.23;;
45043;SDS011;30784;48.490;9.688;2023-11-21T01:03:21;5.07;;;1.10;;
45043;SDS011;30784;48.490;9.688;2023-11-21T01:05:46;4.70;;;0.88;;
45043;SDS011;30784;48.490;9.688;2023-11-21T01:08:14;5.25;;;0.80;;
45043;SDS011;30784;48.490;9.688;2023-11-21T01:10:40;4.60;;;0.82;;
45043;SDS011;30784;48.490;9.688;2023-11-21T01:13:05;6.00;;;0.90;;
45043;SDS011;30784;48.490;9.688;2023-11-21T01:15:32;5.28;;;1.08;;
45043;SDS011;30784;48.490;9.688;2023-11-21T01:17:57;6.13;;;1.45;;
45043;SDS011;30784;48.490;9.688;2023-11-21T01:20:23;6.20;;;1.00;;
45043;SDS011;30784;48.490;9.688;2023-11-21T01:22:49;3.67;;;0.80;;
45043;SDS011;30784;48.490;9.688;2023-11-21T01:25:14;3.90;;;0.65;;
45043;SDS011;30784;48.490;9.688;2023-11-21T01:27:41;2.60;;;0.77;;
45043;SDS011;30784;48.490;9.688;2023-11-21T01:30:07;5.50;;;0.90;;
45043;SDS011;30784;48.490;9.688;2023-11-21T01:32:35;5.15;;;1.10;;
45043;SDS011;30784;48.490;9.688;2023-11-21T01:35:01;5.75;;;1.00;;
45043;SDS011;30784;48.490;9.688;2023-11-21T01:37:27;6.50;;;1.15;;
45043;SDS011;30784;48.490;9.688;2023-11-21T01:39:53;4.22;;;0.70;;
45043;SDS011;30784;48.490;9.688;2023-11-21T01:42:20;5.65;;;0.90;;
45043;SDS011;30784;48.490;9.688;2023-11-21T01:44:46;3.65;;;0.55;;
45043;SDS011;30784;48.490;9.688;2023-11-21T01:47:11;4.28;;;0.98;;
45043;SDS011;30784;48.490;9.688;2023-11-21T01:49:38;2.80;;;0.68;;
45043;SDS011;30784;48.490;9.688;2023-11-21T01:52:04;4.22;;;0.70;;
45043;SDS011;30784;48.490;9.688;2023-11-21T01:54:31;4.55;;;0.60;;
45043;SDS011;30784;48.490;9.688;2023-11-21T01:57:00;4.30;;;0.80;;
45043;SDS011;30784;48.490;9.688;2023-11-21T01:59:33;3.33;;;0.60;;
45043;SDS011;30784;48.490;9.688;2023-11-21T02:02:03;6.03;;;0.82;;
45043;SDS011;30784;48.490;9.688;2023-11-21T02:04:32;5.28;;;0.80;;
45043;SDS011;30784;48.490;9.688;2023-11-21T02:06:58;4.72;;;0.80;;
45043;SDS011;30784;48.490;9.688;2023-11-21T02:09:30;4.30;;;0.73;;
45043;SDS011;30784;48.490;9.688;2023-11-21T02:11:58;5.13;;;0.60;;
45043;SDS011;30784;48.490;9.688;2023-11-21T02:14:24;3.10;;;0.60;;
45043;SDS011;30784;48.490;9.688;2023-11-21T02:16:51;4.38;;;0.98;;
45043;SDS011;30784;48.490;9.688;2023-11-21T02:19:18;3.53;;;0.70;;
45043;SDS011;30784;48.490;9.688;2023-11-21T02:21:45;2.33;;;0.63;;
45043;SDS011;30784;48.490;9.688;2023-11-21T02:24:13;5.50;;;0.90;;
45043;SDS011;30784;48.490;9.688;2023-11-21T02:26:38;4.20;;;0.90;;
45043;SDS011;30784;48.490;9.688;2023-11-21T02:29:04;3.53;;;0.57;;
45043;SDS011;30784;48.490;9.688;2023-11-21T02:31:29;2.95;;;0.57;;
45043;SDS011;30784;48.490;9.688;2023-11-21T02:33:56;4.63;;;0.68;;
45043;SDS011;30784;48.490;9.688;2023-11-21T02:36:21;4.75;;;0.80;;
45043;SDS011;30784;48.490;9.688;2023-11-21T02:38:48;4.13;;;1.00;;
45043;SDS011;30784;48.490;9.688;2023-11-21T02:41:13;4.75;;;1.05;;
45043;SDS011;30784;48.490;9.688;2023-11-21T02:43:39;6.40;;;0.80;;
45043;SDS011;30784;48.490;9.688;2023-11-21T02:46:05;5.13;;;0.80;;
45043;SDS011;30784;48.490;9.688;2023-11-21T02:48:30;3.15;;;0.65;;
45043;SDS011;30784;48.490;9.688;2023-11-21T02:50:56;4.50;;;0.88;;
45043;SDS011;30784;48.490;9.688;2023-11-21T02:53:21;5.03;;;1.08;;
45043;SDS011;30784;48.490;9.688;2023-11-21T02:55:49;5.32;;;0.85;;
45043;SDS011;30784;48.490;9.688;2023-11-21T02:58:14;3.80;;;0.85;;
45043;SDS011;30784;48.490;9.688;2023-11-21T03:00:40;4.10;;;1.05;;
45043;SDS011;30784;48.490;9.688;2023-11-21T03:03:07;7.30;;;1.20;;
45043;SDS011;30784;48.490;9.688;2023-11-21T03:05:33;6.30;;;1.40;;
45043;SDS011;30784;48.490;9.688;2023-11-21T03:08:00;4.05;;;1.00;;
45043;SDS011;30784;48.490;9.688;2023-11-21T03:10:26;3.00;;;0.80;;
45043;SDS011;30784;48.490;9.688;2023-11-21T03:12:52;3.80;;;0.80;;
45043;SDS011;30784;48.490;9.688;2023-11-21T03:15:17;4.05;;;0.90;;
45043;SDS011;30784;48.490;9.688;2023-11-21T03:17:43;5.57;;;0.90;;
45043;SDS011;30784;48.490;9.688;2023-11-21T03:20:08;3.05;;;0.73;;
45043;SDS011;30784;48.490;9.688;2023-11-21T03:22:35;5.43;;;0.70;;
45043;SDS011;30784;48.490;9.688;2023-11-21T03:25:02;3.47;;;0.60;;
45043;SDS011;30784;48.490;9.688;2023-11-21T03:27:28;3.00;;;0.70;;
45043;SDS011;30784;48.490;9.688;2023-11-21T03:29:53;3.30;;;0.60;;
45043;SDS011;30784;48.490;9.688;2023-11-21T03:32:19;2.30;;;0.50;;
45043;SDS011;30784;48.490;9.688;2023-11-21T03:34:55;3.22;;;0.60;;
45043;SDS011;30784;48.490;9.688;2023-11-21T03:37:22;3.00;;;0.60;;
45043;SDS011;30784;48.490;9.688;2023-11-21T03:39:48;2.28;;;0.50;;
45043;SDS011;30784;48.490;9.688;2023-11-21T03:42:14;4.63;;;0.75;;
45043;SDS011;30784;48.490;9.688;2023-11-21T03:44:39;5.80;;;1.40;;
45043;SDS011;30784;48.490;9.688;2023-11-21T03:47:05;4.68;;;1.23;;
45043;SDS011;30784;48.490;9.688;2023-11-21T03:49:30;5.45;;;1.10;;
45043;SDS011;30784;48.490;9.688;2023-11-21T03:51:56;3.60;;;0.90;;
45043;SDS011;30784;48.490;9.688;2023-11-21T03:54:21;3.35;;;0.73;;
45043;SDS011;30784;48.490;9.688;2023-11-21T03:56:47;3.40;;;0.85;;
45043;SDS011;30784;48.490;9.688;2023-11-21T03:59:12;4.95;;;1.23;;
45043;SDS011;30784;48.490;9.688;2023-11-21T04:01:38;4.07;;;0.90;;
45043;SDS011;30784;48.490;9.688;2023-11-21T04:04:03;2.92;;;0.60;;
45043;SDS011;30784;48.490;9.688;2023-11-21T04:06:29;2.55;;;0.35;;
45043;SDS011;30784;48.490;9.688;2023-11-21T04:08:55;2.20;;;0.50;;
45043;SDS011;30784;48.490;9.688;2023-11-21T04:11:20;4.03;;;0.77;;
45043;SDS011;30784;48.490;9.688;2023-11-21T04:13:46;2.47;;;0.68;;
45043;SDS011;30784;48.490;9.688;2023-11-21T04:16:11;1.70;;;0.55;;
45043;SDS011;30784;48.490;9.688;2023-11-21T04:18:37;3.28;;;0.63;;
45043;SDS011;30784;48.490;9.688;2023-11-21T04:21:06;4.32;;;0.65;;
45043;SDS011;30784;48.490;9.688;2023-11-21T04:23:33;3.95;;;0.60;;
45043;SDS011;30784;48.490;9.688;2023-11-21T04:25:59;3.20;;;0.65;;
45043;SDS011;30784;48.490;9.688;2023-11-21T04:28:26;3.33;;;0.77;;
45043;SDS011;30784;48.490;9.688;2023-11-21T04:30:52;3.55;;;0.65;;
45043;SDS011;30784;48.490;9.688;2023-11-21T04:33:18;4.75;;;0.88;;
45043;SDS011;30784;48.490;9.688;2023-11-21T04:35:44;2.63;;;0.65;;
45043;SDS011;30784;48.490;9.688;2023-11-21T04:38:10;2.97;;;0.70;;
45043;SDS011;30784;48.490;9.688;2023-11-21T04:40:35;2.90;;;0.80;;
45043;SDS011;30784;48.490;9.688;2023-11-21T04:43:01;2.83;;;0.60;;
45043;SDS011;30784;48.490;9.688;2023-11-21T04:45:26;5.35;;;0.80;;
45043;SDS011;30784;48.490;9.688;2023-11-21T04:47:52;3.08;;;0.60;;
45043;SDS011;30784;48.490;9.688;2023-11-21T04:50:18;4.63;;;0.95;;
45043;SDS011;30784;48.490;9.688;2023-11-21T04:52:44;4.82;;;1.00;;
45043;SDS011;30784;48.490;9.688;2023-11-21T04:55:09;3.08;;;0.80;;
45043;SDS011;30784;48.490;9.688;2023-11-21T04:57:38;2.30;;;0.43;;
45043;SDS011;30784;48.490;9.688;2023-11-21T05:00:06;2.33;;;0.47;;
45043;SDS011;30784;48.490;9.688;2023-11-21T05:02:33;1.88;;;0.50;;
45043;SDS011;30784;48.490;9.688;2023-11-21T05:05:00;2.35;;;0.70;;
45043;SDS011;30784;48.490;9.688;2023-11-21T05:07:25;2.67;;;0.52;;
45043;SDS011;30784;48.490;9.688;2023-11-21T05:09:56;1.33;;;0.38;;
45043;SDS011;30784;48.490;9.688;2023-11-21T05:12:22;4.65;;;1.42;;
45043;SDS011;30784;48.490;9.688;2023-11-21T05:14:49;6.45;;;1.80;;
45043;SDS011;30784;48.490;9.688;2023-11-21T05:17:15;5.50;;;1.40;;
45043;SDS011;30784;48.490;9.688;2023-11-21T05:19:40;3.35;;;0.77;;
45043;SDS011;30784;48.490;9.688;2023-11-21T05:22:06;2.00;;;0.52;;
45043;SDS011;30784;48.490;9.688;2023-11-21T05:24:33;2.70;;;0.80;;
45043;SDS011;30784;48.490;9.688;2023-11-21T05:26:59;2.58;;;0.70;;
45043;SDS011;30784;48.490;9.688;2023-11-21T05:29:25;3.33;;;0.73;;
45043;SDS011;30784;48.490;9.688;2023-11-21T05:31:51;8.02;;;2.65;;
45043;SDS011;30784;48.490;9.688;2023-11-21T05:34:17;17.00;;;8.27;;
45043;SDS011;30784;48.490;9.688;2023-11-21T05:36:43;25.13;;;12.45;;
45043;SDS011;30784;48.490;9.688;2023-11-21T05:39:10;26.42;;;14.20;;
45043;SDS011;30784;48.490;9.688;2023-11-21T05:41:36;23.92;;;12.48;;
45043;SDS011;30784;48.490;9.688;2023-11-21T05:44:01;16.45;;;8.18;;
45043;SDS011;30784;48.490;9.688;2023-11-21T05:46:27;13.13;;;5.32;;
45043;SDS011;30784;48.490;9.688;2023-11-21T05:48:53;8.70;;;3.60;;
45043;SDS011;30784;48.490;9.688;2023-11-21T05:51:18;7.32;;;2.78;;
45043;SDS011;30784;48.490;9.688;2023-11-21T05:53:44;5.78;;;2.03;;
45043;SDS011;30784;48.490;9.688;2023-11-21T05:56:09;6.82;;;1.90;;
45043;SDS011;30784;48.490;9.688;2023-11-21T05:58:35;5.50;;;1.58;;
45043;SDS011;30784;48.490;9.688;2023-11-21T06:01:00;5.57;;;1.65;;
45043;SDS011;30784;48.490;9.688;2023-11-21T06:03:26;5.10;;;1.40;;
45043;SDS011;30784;48.490;9.688;2023-11-21T06:05:51;7.13;;;2.47;;
45043;SDS011;30784;48.490;9.688;2023-11-21T06:08:17;5.70;;;2.00;;
45043;SDS011;30784;48.490;9.688;2023-11-21T06:10:43;4.85;;;1.58;;
45043;SDS011;30784;48.490;9.688;2023-11-21T06:13:09;3.75;;;0.95;;
45043;SDS011;30784;48.490;9.688;2023-11-21T06:15:35;2.75;;;0.80;;
45043;SDS011;30784;48.490;9.688;2023-11-21T06:18:01;4.30;;;1.10;;
45043;SDS011;30784;48.490;9.688;2023-11-21T06:20:27;4.20;;;1.10;;
45043;SDS011;30784;48.490;9.688;2023-11-21T06:22:52;5.25;;;1.60;;
45043;SDS011;30784;48.490;9.688;2023-11-21T06:25:18;5.93;;;1.70;;
45043;SDS011;30784;48.490;9.688;2023-11-21T06:27:45;6.05;;;1.70;;
45043;SDS011;30784;48.490;9.688;2023-11-21T06:30:14;5.53;;;1.83;;
45043;SDS011;30784;48.490;9.688;2023-11-21T06:32:41;6.43;;;2.20;;
45043;SDS011;30784;48.490;9.688;2023-11-21T06:35:10;6.95;;;2.50;;
45043;SDS011;30784;48.490;9.688;2023-11-21T06:37:43;4.90;;;1.58;;
45043;SDS011;30784;48.490;9.688;2023-11-21T06:40:12;6.53;;;1.75;;
45043;SDS011;30784;48.490;9.688;2023-11-21T06:42:40;5.03;;;1.40;;
45043;SDS011;30784;48.490;9.688;2023-11-21T06:45:06;4.97;;;1.23;;
45043;SDS011;30784;48.490;9.688;2023-11-21T06:47:32;2.45;;;0.80;;
45043;SDS011;30784;48.490;9.688;2023-11-21T06:49:58;6.28;;;1.90;;
45043;SDS011;30784;48.490;9.688;2023-11-21T06:52:24;6.10;;;2.40;;
45043;SDS011;30784;48.490;9.688;2023-11-21T06:54:50;7.10;;;2.72;;
45043;SDS011;30784;48.490;9.688;2023-11-21T06:57:15;6.72;;;1.80;;
45043;SDS011;30784;48.490;9.688;2023-11-21T06:59:41;3.28;;;1.00;;
45043;SDS011;30784;48.490;9.688;2023-11-21T07:02:06;2.90;;;0.80;;
45043;SDS011;30784;48.490;9.688;2023-11-21T07:04:32;1.98;;;0.70;;
45043;SDS011;30784;48.490;9.688;2023-11-21T07:06:58;2.15;;;0.75;;
45043;SDS011;30784;48.490;9.688;2023-11-21T07:09:24;2.30;;;0.50;;
45043;SDS011;30784;48.490;9.688;2023-11-21T07:11:51;2.45;;;0.50;;
45043;SDS011;30784;48.490;9.688;2023-11-21T07:14:17;2.90;;;0.60;;
45043;SDS011;30784;48.490;9.688;2023-11-21T07:16:44;3.35;;;0.50;;
45043;SDS011;30784;48.490;9.688;2023-11-21T07:19:10;2.17;;;0.60;;
45043;SDS011;30784;48.490;9.688;2023-11-21T07:21:37;1.90;;;0.40;;
45043;SDS011;30784;48.490;9.688;2023-11-21T07:24:04;2.60;;;0.70;;
45043;SDS011;30784;48.490;9.688;2023-11-21T07:26:31;1.98;;;0.57;;
45043;SDS011;30784;48.490;9.688;2023-11-21T07:28:57;4.00;;;0.80;;
45043;SDS011;30784;48.490;9.688;2023-11-21T07:31:22;6.57;;;1.58;;
45043;SDS011;30784;48.490;9.688;2023-11-21T07:33:49;11.25;;;2.22;;
45043;SDS011;30784;48.490;9.688;2023-11-21T07:36:15;7.78;;;1.88;;
45043;SDS011;30784;48.490;9.688;2023-11-21T07:38:43;8.77;;;1.92;;
45043;SDS011;30784;48.490;9.688;2023-11-21T07:41:10;9.27;;;2.10;;
45043;SDS011;30784;48.490;9.688;2023-11-21T07:43:36;11.52;;;2.70;;
45043;SDS011;30784;48.490;9.688;2023-11-21T07:46:05;9.18;;;2.60;;
45043;SDS011;30784;48.490;9.688;2023-11-21T07:48:30;7.88;;;2.70;;
45043;SDS011;30784;48.490;9.688;2023-11-21T07:50:56;7.15;;;2.45;;
45043;SDS011;30784;48.490;9.688;2023-11-21T07:53:23;5.65;;;2.00;;
45043;SDS011;30784;48.490;9.688;2023-11-21T07:55:50;9.43;;;3.78;;
45043;SDS011;30784;48.490;9.688;2023-11-21T07:58:16;8.48;;;3.28;;
45043;SDS011;30784;48.490;9.688;2023-11-21T08:00:42;6.88;;;2.35;;
45043;SDS011;30784;48.490;9.688;2023-11-21T08:03:08;5.38;;;1.70;;
45043;SDS011;30784;48.490;9.688;2023-11-21T08:05:33;4.22;;;1.30;;
45043;SDS011;30784;48.490;9.688;2023-11-21T08:07:59;4.22;;;1.30;;
45043;SDS011;30784;48.490;9.688;2023-11-21T08:10:25;3.63;;;0.95;;
45043;SDS011;30784;48.490;9.688;2023-11-21T08:12:51;4.00;;;1.00;;
45043;SDS011;30784;48.490;9.688;2023-11-21T08:15:17;2.97;;;1.00;;
45043;SDS011;30784;48.490;9.688;2023-11-21T08:17:43;3.00;;;0.90;;
45043;SDS011;30784;48.490;9.688;2023-11-21T08:20:08;2.75;;;0.90;;
45043;SDS011;30784;48.490;9.688;2023-11-21T08:22:35;2.90;;;0.80;;
45043;SDS011;30784;48.490;9.688;2023-11-21T08:25:01;2.63;;;0.70;;
45043;SDS011;30784;48.490;9.688;2023-11-21T08:27:29;1.85;;;0.75;;
45043;SDS011;30784;48.490;9.688;2023-11-21T08:29:54;2.45;;;0.65;;
45043;SDS011;30784;48.490;9.688;2023-11-21T08:32:21;4.05;;;0.90;;
45043;SDS011;30784;48.490;9.688;2023-11-21T08:34:46;2.03;;;0.70;;
45043;SDS011;30784;48.490;9.688;2023-11-21T08:37:15;2.88;;;0.70;;
45043;SDS011;30784;48.490;9.688;2023-11-21T08:39:41;1.33;;;0.45;;
45043;SDS011;30784;48.490;9.688;2023-11-21T08:42:08;1.05;;;0.50;;
45043;SDS011;30784;48.490;9.688;2023-11-21T08:44:33;2.95;;;0.50;;
45043;SDS011;30784;48.490;9.688;2023-11-21T08:46:59;3.30;;;0.50;;
45043;SDS011;30784;48.490;9.688;2023-11-21T08:49:24;1.60;;;0.30;;
45043;SDS011;30784;48.490;9.688;2023-11-21T08:51:52;1.85;;;0.50;;
45043;SDS011;30784;48.490;9.688;2023-11-21T08:54:20;4.00;;;0.60;;
45043;SDS011;30784;48.490;9.688;2023-11-21T08:56:46;1.65;;;0.40;;
45043;SDS011;30784;48.490;9.688;2023-11-21T08:59:11;1.63;;;0.50;;
45043;SDS011;30784;48.490;9.688;2023-11-21T09:01:40;1.50;;;0.40;;
45043;SDS011;30784;48.490;9.688;2023-11-21T09:04:05;1.83;;;0.57;;
45043;SDS011;30784;48.490;9.688;2023-11-21T09:06:31;2.15;;;0.50;;
45043;SDS011;30784;48.490;9.688;2023-11-21T09:08:57;2.25;;;0.60;;
45043;SDS011;30784;48.490;9.688;2023-11-21T09:11:23;1.25;;;0.50;;
45043;SDS011;30784;48.490;9.688;2023-11-21T09:13:50;1.17;;;0.50;;
45043;SDS011;30784;48.490;9.688;2023-11-21T09:16:16;2.15;;;0.77;;
45043;SDS011;30784;48.490;9.688;2023-11-21T09:18:43;4.20;;;1.05;;
45043;SDS011;30784;48.490;9.688;2023-11-21T09:21:10;2.47;;;0.68;;
45043;SDS011;30784;48.490;9.688;2023-11-21T09:23:35;2.55;;;0.60;;
45043;SDS011;30784;48.490;9.688;2023-11-21T09:26:01;2.55;;;0.60;;
45043;SDS011;30784;48.490;9.688;2023-11-21T09:28:26;0.82;;;0.50;;
45043;SDS011;30784;48.490;9.688;2023-11-21T09:30:53;1.38;;;0.40;;
45043;SDS011;30784;48.490;9.688;2023-11-21T09:33:18;1.88;;;0.43;;
45043;SDS011;30784;48.490;9.688;2023-11-21T09:35:45;1.15;;;0.30;;
45043;SDS011;30784;48.490;9.688;2023-11-21T09:38:11;0.95;;;0.30;;
45043;SDS011;30784;48.490;9.688;2023-11-21T09:40:37;0.77;;;0.32;;
45043;SDS011;30784;48.490;9.688;2023-11-21T09:43:06;1.70;;;0.47;;
45043;SDS011;30784;48.490;9.688;2023-11-21T09:45:44;2.50;;;0.60;;
45043;SDS011;30784;48.490;9.688;2023-11-21T09:48:12;2.03;;;0.57;;
45043;SDS011;30784;48.490;9.688;2023-11-21T09:50:40;2.42;;;0.40;;
45043;SDS011;30784;48.490;9.688;2023-11-21T09:53:09;1.02;;;0.43;;
45043;SDS011;30784;48.490;9.688;2023-11-21T09:55:43;1.90;;;0.55;;
45043;SDS011;30784;48.490;9.688;2023-11-21T09:58:10;2.58;;;0.80;;
45043;SDS011;30784;48.490;9.688;2023-11-21T10:00:42;4.72;;;0.82;;
45043;SDS011;30784;48.490;9.688;2023-11-21T10:03:09;7.35;;;1.67;;
45043;SDS011;30784;48.490;9.688;2023-11-21T10:05:36;2.00;;;0.60;;
45043;SDS011;30784;48.490;9.688;2023-11-21T10:08:02;1.75;;;0.60;;
45043;SDS011;30784;48.490;9.688;2023-11-21T10:10:35;2.55;;;0.63;;
45043;SDS011;30784;48.490;9.688;2023-11-21T10:13:02;1.75;;;0.50;;
45043;SDS011;30784;48.490;9.688;2023-11-21T10:15:35;0.85;;;0.30;;
45043;SDS011;30784;48.490;9.688;2023-11-21T10:18:05;1.35;;;0.40;;
45043;SDS011;30784;48.490;9.688;2023-11-21T10:20:32;2.33;;;0.40;;
45043;SDS011;30784;48.490;9.688;2023-11-21T10:23:03;2.05;;;0.63;;
45043;SDS011;30784;48.490;9.688;2023-11-21T10:25:29;2.45;;;0.60;;
45043;SDS011;30784;48.490;9.688;2023-11-21T10:27:59;3.08;;;0.70;;
45043;SDS011;30784;48.490;9.688;2023-11-21T10:30:32;1.50;;;0.60;;
45043;SDS011;30784;48.490;9.688;2023-11-21T10:33:02;1.58;;;0.50;;
45043;SDS011;30784;48.490;9.688;2023-11-21T10:35:47;0.85;;;0.30;;
45043;SDS011;30784;48.490;9.688;2023-11-21T10:38:15;1.70;;;0.60;;
45043;SDS011;30784;48.490;9.688;2023-11-21T10:40:41;1.42;;;0.40;;
45043;SDS011;30784;48.490;9.688;2023-11-21T10:43:09;1.13;;;0.30;;
45043;SDS011;30784;48.490;9.688;2023-11-21T10:45:38;0.20;;;0.13;;
45043;SDS011;30784;48.490;9.688;2023-11-21T10:48:07;0.82;;;0.30;;
45043;SDS011;30784;48.490;9.688;2023-11-21T10:50:42;1.88;;;0.50;;
45043;SDS011;30784;48.490;9.688;2023-11-21T10:53:08;2.33;;;0.50;;
45043;SDS011;30784;48.490;9.688;2023-11-21T10:55:34;3.10;;;0.55;;
45043;SDS011;30784;48.490;9.688;2023-11-21T10:58:00;2.47;;;0.70;;
45043;SDS011;30784;48.490;9.688;2023-11-21T11:00:29;2.43;;;0.60;;
45043;SDS011;30784;48.490;9.688;2023-11-21T11:02:56;1.40;;;0.60;;
45043;SDS011;30784;48.490;9.688;2023-11-21T11:05:24;1.23;;;0.60;;
45043;SDS011;30784;48.490;9.688;2023-11-21T11:08:02;2.42;;;0.68;;
45043;SDS011;30784;48.490;9.688;2023-11-21T11:10:30;2.47;;;0.77;;
45043;SDS011;30784;48.490;9.688;2023-11-21T11:12:57;2.15;;;0.60;;
45043;SDS011;30784;48.490;9.688;2023-11-21T11:15:27;3.00;;;0.90;;
45043;SDS011;30784;48.490;9.688;2023-11-21T11:17:53;4.75;;;0.90;;
45043;SDS011;30784;48.490;9.688;2023-11-21T11:20:22;2.65;;;0.98;;
45043;SDS011;30784;48.490;9.688;2023-11-21T11:37:07;1.25;;;0.35;;
45043;SDS011;30784;48.490;9.688;2023-11-21T11:42:06;1.85;;;0.68;;
45043;SDS011;30784;48.490;9.688;2023-11-21T11:44:52;2.10;;;0.50;;
45043;SDS011;30784;48.490;9.688;2023-11-21T11:49:57;1.88;;;0.52;;
45043;SDS011;30784;48.490;9.688;2023-11-21T11:52:45;1.08;;;0.45;;
45043;SDS011;30784;48.490;9.688;2023-11-21T11:55:12;0.60;;;0.20;;
45043;SDS011;30784;48.490;9.688;2023-11-21T11:57:41;2.25;;;0.55;;
45043;SDS011;30784;48.490;9.688;2023-11-21T12:00:14;1.55;;;0.40;;
45043;SDS011;30784;48.490;9.688;2023-11-21T12:02:48;2.38;;;0.57;;
45043;SDS011;30784;48.490;9.688;2023-11-21T12:05:16;1.50;;;0.40;;
45043;SDS011;30784;48.490;9.688;2023-11-21T12:07:47;0.73;;;0.30;;
45043;SDS011;30784;48.490;9.688;2023-11-21T12:10:15;1.90;;;0.68;;
45043;SDS011;30784;48.490;9.688;2023-11-21T12:12:46;1.58;;;0.50;;
45043;SDS011;30784;48.490;9.688;2023-11-21T12:15:13;1.58;;;0.63;;
45043;SDS011;30784;48.490;9.688;2023-11-21T12:17:42;2.97;;;0.90;;
45043;SDS011;30784;48.490;9.688;2023-11-21T12:20:08;3.28;;;0.90;;
45043;SDS011;30784;48.490;9.688;2023-11-21T12:22:42;2.70;;;0.82;;
45043;SDS011;30784;48.490;9.688;2023-11-21T12:25:12;1.30;;;0.43;;
45043;SDS011;30784;48.490;9.688;2023-11-21T12:27:43;2.85;;;0.88;;
45043;SDS011;30784;48.490;9.688;2023-11-21T12:30:32;2.13;;;0.57;;
45043;SDS011;30784;48.490;9.688;2023-11-21T12:33:02;2.53;;;0.77;;
45043;SDS011;30784;48.490;9.688;2023-11-21T12:35:30;1.52;;;0.60;;
45043;SDS011;30784;48.490;9.688;2023-11-21T12:37:59;2.88;;;0.60;;
45043;SDS011;30784;48.490;9.688;2023-11-21T12:40:27;3.30;;;0.70;;
45043;SDS011;30784;48.490;9.688;2023-11-21T12:42:54;2.45;;;0.70;;
45043;SDS011;30784;48.490;9.688;2023-11-21T12:45:24;4.47;;;0.70;;
45043;SDS011;30784;48.490;9.688;2023-11-21T12:48:04;1.63;;;0.32;;
45043;SDS011;30784;48.490;9.688;2023-11-21T12:50:36;1.80;;;0.57;;
45043;SDS011;30784;48.490;9.688;2023-11-21T12:53:03;2.20;;;0.70;;
45043;SDS011;30784;48.490;9.688;2023-11-21T12:55:31;2.47;;;0.73;;
45043;SDS011;30784;48.490;9.688;2023-11-21T12:58:00;1.08;;;0.50;;
45043;SDS011;30784;48.490;9.688;2023-11-21T13:00:42;2.33;;;0.60;;
45043;SDS011;30784;48.490;9.688;2023-11-21T13:03:10;2.22;;;0.60;;
45043;SDS011;30784;48.490;9.688;2023-11-21T13:05:45;2.85;;;0.65;;
45043;SDS011;30784;48.490;9.688;2023-11-21T13:08:15;2.95;;;0.70;;
45043;SDS011;30784;48.490;9.688;2023-11-21T13:10:44;3.35;;;0.80;;
45043;SDS011;30784;48.490;9.688;2023-11-21T13:13:12;4.90;;;1.30;;
45043;SDS011;30784;48.490;9.688;2023-11-21T13:15:47;3.88;;;1.10;;
45043;SDS011;30784;48.490;9.688;2023-11-21T13:18:15;3.53;;;0.90;;
45043;SDS011;30784;48.490;9.688;2023-11-21T13:20:41;3.38;;;1.05;;
45043;SDS011;30784;48.490;9.688;2023-11-21T13:23:11;2.58;;;0.90;;
45043;SDS011;30784;48.490;9.688;2023-11-21T13:25:40;4.53;;;1.15;;
45043;SDS011;30784;48.490;9.688;2023-11-21T13:28:06;3.13;;;0.93;;
45043;SDS011;30784;48.490;9.688;2023-11-21T13:30:34;3.33;;;0.80;;
45043;SDS011;30784;48.490;9.688;2023-11-21T13:33:01;3.30;;;0.90;;
45043;SDS011;30784;48.490;9.688;2023-11-21T13:35:31;4.20;;;0.90;;
45043;SDS011;30784;48.490;9.688;2023-11-21T13:38:10;2.90;;;0.90;;
45043;SDS011;30784;48.490;9.688;2023-11-21T13:40:37;2.58;;;0.77;;
45043;SDS011;30784;48.490;9.688;2023-11-21T13:43:09;1.30;;;0.65;;
45043;SDS011;30784;48.490;9.688;2023-11-21T13:45:41;2.15;;;0.60;;
45043;SDS011;30784;48.490;9.688;2023-11-21T13:48:08;2.08;;;0.60;;
45043;SDS011;30784;48.490;9.688;2023-11-21T13:50:38;1.88;;;0.70;;
45043;SDS011;30784;48.490;9.688;2023-11-21T13:53:33;3.45;;;0.80;;
45043;SDS011;30784;48.490;9.688;2023-11-21T13:56:02;2.28;;;0.70;;
45043;SDS011;30784;48.490;9.688;2023-11-21T13:58:28;2.97;;;1.00;;
45043;SDS011;30784;48.490;9.688;2023-11-21T14:01:16;2.15;;;0.68;;
45043;SDS011;30784;48.490;9.688;2023-11-21T14:03:58;2.78;;;0.60;;
45043;SDS011;30784;48.490;9.688;2023-11-21T14:06:36;2.92;;;0.80;;
45043;SDS011;30784;48.490;9.688;2023-11-21T14:09:12;3.00;;;1.00;;
45043;SDS011;30784;48.490;9.688;2023-11-21T14:11:47;4.75;;;1.27;;
45043;SDS011;30784;48.490;9.688;2023-11-21T14:14:21;4.53;;;1.30;;
45043;SDS011;30784;48.490;9.688;2023-11-21T14:16:55;4.88;;;1.35;;
45043;SDS011;30784;48.490;9.688;2023-11-21T14:19:22;2.42;;;0.90;;
45043;SDS011;30784;48.490;9.688;2023-11-21T14:21:52;3.58;;;1.00;;
45043;SDS011;30784;48.490;9.688;2023-11-21T14:24:17;4.50;;;0.80;;
45043;SDS011;30784;48.490;9.688;2023-11-21T14:26:44;3.25;;;0.80;;
45043;SDS011;30784;48.490;9.688;2023-11-21T14:29:11;4.20;;;1.00;;
45043;SDS011;30784;48.490;9.688;2023-11-21T14:31:39;5.07;;;1.20;;
45043;SDS011;30784;48.490;9.688;2023-11-21T14:34:05;2.58;;;1.00;;
45043;SDS011;30784;48.490;9.688;2023-11-21T14:36:32;3.47;;;1.20;;
45043;SDS011;30784;48.490;9.688;2023-11-21T14:38:58;3.15;;;0.95;;
45043;SDS011;30784;48.490;9.688;2023-11-21T14:41:23;3.45;;;1.00;;
45043;SDS011;30784;48.490;9.688;2023-11-21T14:43:50;4.25;;;1.33;;
45043;SDS011;30784;48.490;9.688;2023-11-21T14:46:16;4.20;;;1.23;;
45043;SDS011;30784;48.490;9.688;2023-11-21T14:48:44;4.47;;;1.30;;
45043;SDS011;30784;48.490;9.688;2023-11-21T14:51:23;3.53;;;1.10;;
45043;SDS011;30784;48.490;9.688;2023-11-21T14:54:08;3.88;;;1.20;;
45043;SDS011;30784;48.490;9.688;2023-11-21T14:56:35;3.50;;;1.00;;
45043;SDS011;30784;48.490;9.688;2023-11-21T14:59:02;3.53;;;1.30;;
45043;SDS011;30784;48.490;9.688;2023-11-21T15:01:37;4.78;;;1.55;;
45043;SDS011;30784;48.490;9.688;2023-11-21T15:04:18;3.58;;;1.30;;
45043;SDS011;30784;48.490;9.688;2023-11-21T15:07:02;5.57;;;1.35;;
45043;SDS011;30784;48.490;9.688;2023-11-21T15:09:29;4.07;;;1.30;;
45043;SDS011;30784;48.490;9.688;2023-11-21T15:12:03;3.85;;;1.27;;